Time;durP1;ratioP1;P1;durP2;ratioP2;P2;SDS_P1;SDS_P2;PMS_P1;PMS_P2;Temp;Humidity;BMP_temperature;BMP_pressure;BME280_temperature;BME280_humidity;BME280_pressure;Samples;Min_cycle;Max_cycle;Signal;HPM_P1;HPM_P2
2023/04/08 00:00:15;;;;;;;4.53;4.13;;;10.70;91.70;;;;;;943480;148;27363;-75
2023/04/08 00:02:42;;;;;;;5.00;4.60;;;10.60;91.20;;;;;;942636;148;27294;-75
2023/04/08 00:05:08;;;;;;;4.40;4.10;;;10.60;91.30;;;;;;938951;150;27390;-75
2023/04/08 00:07:35;;;;;;;4.87;4.47;;;10.60;91.30;;;;;;941306;148;27809;-75
2023/04/08 00:10:01;;;;;;;4.80;4.40;;;10.50;91.30;;;;;;941546;148;27488;-75
2023/04/08 00:12:28;;;;;;;5.03;4.60;;;10.50;91.40;;;;;;942968;148;28028;-75
2023/04/08 00:14:54;;;;;;;4.67;4.27;;;10.40;91.40;;;;;;943512;148;27337;-75
2023/04/08 00:17:21;;;;;;;4.67;4.27;;;10.40;91.50;;;;;;943465;148;27321;-75
2023/04/08 00:19:48;;;;;;;5.10;4.67;;;10.30;91.50;;;;;;944934;149;27302;-75
2023/04/08 00:22:14;;;;;;;5.93;4.33;;;10.30;91.60;;;;;;932459;149;27447;-75
2023/04/08 00:24:41;;;;;;;5.37;4.87;;;10.30;91.70;;;;;;948904;147;27356;-75
2023/04/08 00:27:07;;;;;;;5.00;4.60;;;10.20;91.80;;;;;;943638;149;27322;-75
2023/04/08 00:29:34;;;;;;;5.33;4.83;;;10.10;91.80;;;;;;946401;147;27720;-75
2023/04/08 00:32:02;;;;;;;5.17;4.70;;;10.10;91.90;;;;;;932139;150;27358;-75
2023/04/08 00:34:27;;;;;;;4.73;4.33;;;10.10;92.00;;;;;;940988;149;27467;-75
2023/04/08 00:36:55;;;;;;;5.13;4.73;;;10.00;92.00;;;;;;940864;149;27452;-74
2023/04/08 00:39:20;;;;;;;6.17;4.73;;;9.90;92.10;;;;;;940471;149;27313;-74
2023/04/08 00:41:47;;;;;;;5.83;5.33;;;9.90;92.30;;;;;;941947;149;27274;-75
2023/04/08 00:44:14;;;;;;;4.97;4.53;;;9.90;92.40;;;;;;943719;148;27344;-75
2023/04/08 00:46:40;;;;;;;5.10;4.67;;;9.80;92.50;;;;;;942711;148;27348;-75
2023/04/08 00:49:07;;;;;;;5.10;4.70;;;9.70;92.60;;;;;;941295;149;27419;-75
2023/04/08 00:51:36;;;;;;;4.70;4.30;;;9.70;92.80;;;;;;941623;149;27290;-74
2023/04/08 00:54:00;;;;;;;5.13;4.73;;;9.70;93.00;;;;;;943422;148;27450;-75
2023/04/08 00:56:26;;;;;;;4.90;4.50;;;9.60;93.00;;;;;;938654;149;27357;-75
2023/04/08 00:58:54;;;;;;;4.93;4.53;;;9.60;93.10;;;;;;941447;149;27265;-75
2023/04/08 01:01:38;;;;;;;4.70;4.30;;;9.60;93.10;;;;;;943514;148;27346;-75
2023/04/08 01:04:13;;;;;;;4.80;4.40;;;9.50;93.10;;;;;;921781;151;27442;-75
2023/04/08 01:06:44;;;;;;;5.40;4.90;;;9.50;92.90;;;;;;927010;150;27999;-75
2023/04/08 01:09:09;;;;;;;5.17;4.77;;;9.40;92.90;;;;;;937352;148;27387;-75
2023/04/08 01:11:36;;;;;;;5.67;5.17;;;9.30;93.00;;;;;;942619;148;27350;-75
2023/04/08 01:14:05;;;;;;;5.20;4.80;;;9.30;93.10;;;;;;942082;148;27316;-75
2023/04/08 01:16:29;;;;;;;5.80;5.10;;;9.20;93.20;;;;;;944016;148;27466;-74
2023/04/08 01:18:56;;;;;;;5.27;4.80;;;9.10;93.20;;;;;;933276;150;27414;-74
2023/04/08 01:21:22;;;;;;;5.40;4.90;;;9.00;93.30;;;;;;944532;151;27367;-75
2023/04/08 01:24:01;;;;;;;5.13;4.73;;;8.90;93.40;;;;;;942375;149;27310;-75
2023/04/08 01:26:27;;;;;;;5.10;4.70;;;8.90;93.50;;;;;;918417;155;27427;-74
2023/04/08 01:28:54;;;;;;;5.67;5.17;;;8.80;93.60;;;;;;918661;153;27891;-74
2023/04/08 01:31:21;;;;;;;6.00;5.50;;;8.70;93.80;;;;;;929947;151;27859;-74
2023/04/08 01:33:47;;;;;;;5.67;5.17;;;8.60;93.90;;;;;;915182;155;27312;-74
2023/04/08 01:36:14;;;;;;;6.20;5.60;;;8.50;94.10;;;;;;939400;151;27325;-74
2023/04/08 01:38:40;;;;;;;5.53;5.03;;;8.50;94.30;;;;;;933879;151;27386;-74
2023/04/08 01:41:07;;;;;;;5.40;5.00;;;8.40;94.40;;;;;;928192;153;27361;-74
2023/04/08 01:43:34;;;;;;;5.83;5.33;;;8.40;94.60;;;;;;929756;151;27416;-74
2023/04/08 01:46:00;;;;;;;5.47;4.97;;;8.30;94.70;;;;;;928231;151;28326;-75
2023/04/08 01:48:27;;;;;;;5.97;5.37;;;8.30;94.90;;;;;;928710;152;27310;-74
2023/04/08 01:50:53;;;;;;;5.70;5.10;;;8.20;94.90;;;;;;939775;152;27340;-74
2023/04/08 01:53:20;;;;;;;5.00;4.60;;;8.10;95.00;;;;;;940759;152;27345;-74
2023/04/08 01:55:47;;;;;;;5.70;5.03;;;8.10;95.20;;;;;;925761;154;27345;-74
2023/04/08 01:58:13;;;;;;;4.70;4.30;;;8.10;95.30;;;;;;927201;154;28012;-74
2023/04/08 02:00:40;;;;;;;5.00;4.60;;;8.00;95.50;;;;;;923237;152;27347;-74
2023/04/08 02:03:06;;;;;;;6.40;5.50;;;7.90;95.50;;;;;;927785;153;27361;-74
2023/04/08 02:05:33;;;;;;;5.70;5.20;;;7.90;95.50;;;;;;927255;153;27410;-74
2023/04/08 02:08:00;;;;;;;4.70;4.30;;;7.80;95.60;;;;;;928218;152;27400;-74
2023/04/08 02:10:26;;;;;;;4.93;4.53;;;7.80;95.70;;;;;;939490;152;27332;-75
2023/04/08 02:12:53;;;;;;;5.80;4.57;;;7.70;96.20;;;;;;929642;154;27395;-75
2023/04/08 02:15:19;;;;;;;5.50;5.00;;;7.60;95.90;;;;;;942726;152;27356;-74
2023/04/08 02:17:46;;;;;;;5.43;4.93;;;7.60;96.00;;;;;;942941;151;27421;-74
2023/04/08 02:20:18;;;;;;;4.93;4.53;;;7.60;96.00;;;;;;942615;148;27327;-74
2023/04/08 02:22:48;;;;;;;5.03;4.63;;;7.50;96.20;;;;;;942511;151;27363;-77
2023/04/08 02:25:14;;;;;;;5.03;4.57;;;7.50;96.30;;;;;;925413;151;28073;-77
2023/04/08 02:27:41;;;;;;;5.53;5.03;;;7.40;96.40;;;;;;926883;154;27318;-77
2023/04/08 02:30:07;;;;;;;4.80;4.30;;;7.40;96.40;;;;;;930204;154;27329;-75
2023/04/08 02:32:34;;;;;;;4.83;4.43;;;7.30;96.40;;;;;;941287;149;27426;-78
2023/04/08 02:35:03;;;;;;;3.73;3.47;;;7.30;96.40;;;;;;927888;152;27389;-78
2023/04/08 02:37:30;;;;;;;4.00;3.70;;;7.30;96.50;;;;;;940613;151;27310;-78
2023/04/08 02:39:56;;;;;;;4.90;3.63;;;7.20;96.50;;;;;;917367;155;27319;-78
2023/04/08 02:42:23;;;;;;;4.53;4.20;;;7.20;96.60;;;;;;916806;152;27357;-77
2023/04/08 02:44:50;;;;;;;4.07;3.73;;;7.10;96.90;;;;;;927234;151;27448;-77
2023/04/08 02:47:16;;;;;;;4.07;3.67;;;7.10;96.80;;;;;;928123;152;27716;-77
2023/04/08 02:49:43;;;;;;;4.20;3.80;;;7.00;96.50;;;;;;923745;154;27694;-76
2023/04/08 02:52:09;;;;;;;4.17;3.80;;;7.00;96.60;;;;;;934064;151;27315;-77
2023/04/08 02:54:36;;;;;;;4.13;3.77;;;6.90;96.70;;;;;;924801;151;27426;-76
2023/04/08 02:57:02;;;;;;;3.80;3.50;;;6.90;96.80;;;;;;927004;152;27450;-76
2023/04/08 02:59:29;;;;;;;5.77;4.03;;;6.80;96.90;;;;;;924528;154;27306;-77
2023/04/08 03:01:55;;;;;;;5.37;4.37;;;6.80;96.90;;;;;;930663;153;27862;-77
2023/04/08 03:04:22;;;;;;;28.60;6.27;;;6.80;97.10;;;;;;927571;151;27372;-77
2023/04/08 03:06:49;;;;;;;43.43;9.50;;;6.70;97.20;;;;;;924432;153;27461;-77
2023/04/08 03:09:15;;;;;;;65.13;10.90;;;6.70;97.50;;;;;;918722;152;27386;-77
2023/04/08 03:11:43;;;;;;;76.10;9.43;;;6.70;97.70;;;;;;930996;151;27421;-77
2023/04/08 03:14:08;;;;;;;57.60;8.07;;;6.70;97.90;;;;;;943737;151;27318;-77
2023/04/08 03:16:35;;;;;;;34.90;7.33;;;6.70;97.90;;;;;;926476;154;27366;-77
2023/04/08 03:19:02;;;;;;;32.83;6.57;;;6.70;97.90;;;;;;925986;152;27370;-77
2023/04/08 03:21:30;;;;;;;36.80;5.70;;;6.70;98.00;;;;;;936528;150;27334;-77
2023/04/08 03:23:55;;;;;;;21.20;5.53;;;6.60;97.90;;;;;;942483;148;27317;-77
2023/04/08 03:26:21;;;;;;;19.33;4.50;;;6.70;97.80;;;;;;943601;148;27289;-77
2023/04/08 03:28:48;;;;;;;23.80;4.47;;;6.60;97.70;;;;;;944352;148;27353;-77
2023/04/08 03:31:15;;;;;;;20.00;5.40;;;6.60;97.70;;;;;;945223;147;27274;-77
2023/04/08 03:33:41;;;;;;;42.40;6.37;;;6.60;97.70;;;;;;938381;150;27323;-76
2023/04/08 03:36:08;;;;;;;16.53;4.73;;;6.50;97.70;;;;;;942935;148;27425;-76
2023/04/08 03:38:34;;;;;;;18.30;4.70;;;6.50;97.80;;;;;;943578;148;27438;-77
2023/04/08 03:41:01;;;;;;;17.80;3.60;;;6.50;97.80;;;;;;943711;148;27349;-77
2023/04/08 03:43:27;;;;;;;12.47;3.67;;;6.50;97.80;;;;;;939508;150;27431;-77
2023/04/08 03:45:55;;;;;;;6.90;3.83;;;6.40;97.80;;;;;;942969;147;27295;-77
2023/04/08 03:48:21;;;;;;;13.90;4.63;;;6.40;97.90;;;;;;936276;149;27454;-77
2023/04/08 03:50:47;;;;;;;8.83;4.53;;;6.40;97.80;;;;;;942700;148;27345;-77
2023/04/08 03:53:14;;;;;;;17.03;5.20;;;6.40;97.90;;;;;;943384;148;27357;-76
2023/04/08 03:55:40;;;;;;;15.23;4.60;;;6.40;97.80;;;;;;943847;148;27325;-77
2023/04/08 03:58:07;;;;;;;12.33;5.00;;;6.30;97.90;;;;;;945014;147;27844;-77
2023/04/08 04:00:34;;;;;;;6.83;4.17;;;6.30;97.80;;;;;;942083;149;27359;-77
2023/04/08 04:03:00;;;;;;;7.33;4.50;;;6.30;97.90;;;;;;926771;150;27387;-76
2023/04/08 04:05:27;;;;;;;10.53;5.50;;;6.30;97.90;;;;;;940163;150;27333;-77
2023/04/08 04:07:53;;;;;;;12.00;4.50;;;6.30;97.90;;;;;;943642;148;27310;-77
2023/04/08 04:10:20;;;;;;;20.80;5.30;;;6.20;97.90;;;;;;943605;148;27872;-77
2023/04/08 04:12:46;;;;;;;16.90;5.33;;;6.20;98.00;;;;;;944456;148;27370;-77
2023/04/08 04:15:13;;;;;;;13.53;4.90;;;6.20;98.20;;;;;;943029;148;27875;-77
2023/04/08 04:17:40;;;;;;;19.50;4.70;;;6.10;98.30;;;;;;937387;148;27295;-77
2023/04/08 04:20:06;;;;;;;17.43;5.37;;;6.10;98.40;;;;;;933153;150;27267;-77
2023/04/08 04:22:33;;;;;;;23.67;5.50;;;6.10;98.50;;;;;;938455;150;27491;-77
2023/04/08 04:24:59;;;;;;;12.80;4.10;;;6.10;98.90;;;;;;938673;150;27891;-77
2023/04/08 04:27:26;;;;;;;14.33;4.53;;;6.10;98.60;;;;;;943643;148;27266;-77
2023/04/08 04:29:53;;;;;;;27.27;5.23;;;6.10;98.70;;;;;;941093;149;27418;-77
2023/04/08 04:32:19;;;;;;;19.77;7.10;;;6.10;98.80;;;;;;927698;150;27491;-76
2023/04/08 04:34:46;;;;;;;27.17;9.27;;;6.10;99.00;;;;;;939580;150;27370;-77
2023/04/08 04:37:12;;;;;;;38.93;7.47;;;6.10;99.20;;;;;;942408;148;27359;-77
2023/04/08 04:39:39;;;;;;;54.00;9.77;;;6.10;99.30;;;;;;927383;150;27291;-77
2023/04/08 04:42:06;;;;;;;41.27;8.53;;;6.10;99.20;;;;;;938433;150;27382;-77
2023/04/08 04:44:32;;;;;;;39.27;7.47;;;6.10;99.30;;;;;;943098;148;27395;-77
2023/04/08 04:46:59;;;;;;;45.97;8.40;;;6.20;99.50;;;;;;944454;148;27376;-74
2023/04/08 04:49:25;;;;;;;85.27;10.90;;;6.20;99.50;;;;;;944649;148;27286;-74
2023/04/08 04:51:52;;;;;;;56.53;9.60;;;6.20;99.50;;;;;;940049;150;27449;-74
2023/04/08 04:54:19;;;;;;;40.37;7.40;;;6.20;99.50;;;;;;943644;148;27317;-74
2023/04/08 04:56:45;;;;;;;69.00;9.13;;;6.30;99.90;;;;;;927794;149;27465;-74
2023/04/08 04:59:12;;;;;;;67.70;9.00;;;6.30;99.10;;;;;;926844;150;27487;-74
2023/04/08 05:01:39;;;;;;;31.97;6.27;;;6.30;99.10;;;;;;943502;148;27830;-74
2023/04/08 05:04:05;;;;;;;48.23;7.23;;;6.30;99.00;;;;;;943374;148;27302;-74
2023/04/08 05:06:31;;;;;;;46.27;9.10;;;6.30;99.00;;;;;;944341;148;27395;-74
2023/04/08 05:08:58;;;;;;;64.47;11.30;;;6.30;99.10;;;;;;927723;150;27431;-74
2023/04/08 05:11:25;;;;;;;25.33;5.30;;;6.30;99.20;;;;;;944314;149;27405;-74
2023/04/08 05:13:51;;;;;;;54.47;7.80;;;6.30;99.00;;;;;;943954;148;27277;-74
2023/04/08 05:16:18;;;;;;;36.10;6.57;;;6.30;98.80;;;;;;938912;150;27342;-74
2023/04/08 05:18:45;;;;;;;21.70;6.07;;;6.30;98.90;;;;;;944714;151;27971;-74
2023/04/08 05:21:11;;;;;;;31.93;6.47;;;6.30;99.00;;;;;;942645;147;27693;-74
2023/04/08 05:23:38;;;;;;;10.63;4.77;;;6.30;99.20;;;;;;949593;147;27308;-74
2023/04/08 05:26:04;;;;;;;13.33;5.33;;;6.30;99.30;;;;;;946049;147;27274;-76
2023/04/08 05:28:31;;;;;;;13.93;5.90;;;6.30;99.40;;;;;;941205;149;27461;-76
2023/04/08 05:30:57;;;;;;;15.50;6.30;;;6.40;99.50;;;;;;941069;149;27334;-77
2023/04/08 05:33:25;;;;;;;15.70;5.93;;;6.40;99.60;;;;;;943037;148;27667;-76
2023/04/08 05:35:51;;;;;;;6.13;5.50;;;6.40;99.30;;;;;;943470;148;27382;-76
2023/04/08 05:38:17;;;;;;;18.90;6.43;;;6.40;99.80;;;;;;940866;149;27443;-77
2023/04/08 05:40:44;;;;;;;9.43;6.30;;;6.50;99.90;;;;;;940687;149;28036;-77
2023/04/08 05:43:10;;;;;;;7.97;6.27;;;6.50;99.80;;;;;;942937;148;27278;-76
2023/04/08 05:45:37;;;;;;;12.73;6.47;;;6.50;99.90;;;;;;943661;148;27339;-76
2023/04/08 05:48:03;;;;;;;10.23;5.50;;;6.60;99.90;;;;;;942307;149;27338;-76
2023/04/08 05:50:30;;;;;;;11.27;6.60;;;6.60;99.90;;;;;;941328;149;27372;-77
2023/04/08 05:52:57;;;;;;;7.67;5.30;;;6.70;99.90;;;;;;941679;149;27353;-77
2023/04/08 05:55:23;;;;;;;8.53;5.40;;;6.70;99.90;;;;;;941285;149;27356;-77
2023/04/08 05:57:50;;;;;;;7.30;5.57;;;6.80;99.90;;;;;;942651;149;27423;-77
2023/04/08 06:00:16;;;;;;;8.63;5.83;;;6.80;99.90;;;;;;944530;148;27278;-77
2023/04/08 06:02:43;;;;;;;8.93;5.27;;;6.90;99.90;;;;;;938369;150;27373;-77
2023/04/08 06:05:09;;;;;;;9.73;5.50;;;7.00;99.90;;;;;;944208;148;27376;-77
2023/04/08 06:07:36;;;;;;;7.03;5.57;;;7.00;99.90;;;;;;927694;150;27320;-77
2023/04/08 06:10:04;;;;;;;8.40;5.83;;;7.10;99.90;;;;;;943715;148;27340;-77
2023/04/08 06:12:29;;;;;;;5.87;5.27;;;7.10;99.90;;;;;;942891;148;27362;-76
2023/04/08 06:14:56;;;;;;;7.50;6.27;;;7.20;99.90;;;;;;943709;148;27309;-76
2023/04/08 06:17:22;;;;;;;9.00;6.40;;;7.30;99.90;;;;;;948082;147;27418;-76
2023/04/08 06:19:49;;;;;;;5.53;5.03;;;7.30;99.90;;;;;;948149;147;27240;-76
2023/04/08 06:22:16;;;;;;;6.40;5.80;;;7.40;99.90;;;;;;945929;147;27503;-76
2023/04/08 06:24:42;;;;;;;7.67;5.70;;;7.50;99.90;;;;;;938546;150;27427;-77
2023/04/08 06:27:09;;;;;;;6.17;5.53;;;7.50;99.90;;;;;;930709;149;27798;-77
2023/04/08 06:29:35;;;;;;;5.93;5.33;;;7.60;99.90;;;;;;926808;150;27393;-77
2023/04/08 06:32:02;;;;;;;6.50;5.90;;;7.70;99.90;;;;;;928051;150;27334;-77
2023/04/08 06:34:28;;;;;;;6.33;5.73;;;7.80;99.90;;;;;;928967;150;27361;-77
2023/04/08 06:36:55;;;;;;;6.57;5.93;;;7.90;99.90;;;;;;927327;150;27462;-77
2023/04/08 06:39:22;;;;;;;6.80;6.20;;;8.00;99.90;;;;;;927215;150;27375;-77
2023/04/08 06:41:48;;;;;;;8.43;7.20;;;8.20;99.90;;;;;;927592;150;27400;-77
2023/04/08 06:44:15;;;;;;;6.70;6.10;;;8.30;99.90;;;;;;928837;150;27331;-75
2023/04/08 06:46:41;;;;;;;5.73;5.23;;;8.40;99.90;;;;;;926016;150;27426;-76
2023/04/08 06:49:08;;;;;;;5.63;5.13;;;8.60;99.90;;;;;;927227;150;27335;-76
2023/04/08 06:51:35;;;;;;;5.20;4.73;;;8.80;99.90;;;;;;935059;148;27331;-76
2023/04/08 06:54:01;;;;;;;6.17;5.60;;;8.90;99.90;;;;;;935791;148;27302;-76
2023/04/08 06:56:28;;;;;;;5.37;4.93;;;9.10;99.90;;;;;;931287;149;27411;-76
2023/04/08 06:58:54;;;;;;;4.87;4.50;;;9.30;99.90;;;;;;926582;150;27341;-76
2023/04/08 07:01:21;;;;;;;5.27;4.87;;;9.50;99.90;;;;;;925154;150;27442;-76
2023/04/08 07:03:47;;;;;;;5.13;4.73;;;9.70;99.90;;;;;;926667;150;27405;-76
2023/04/08 07:06:14;;;;;;;4.80;4.40;;;9.90;99.90;;;;;;928015;150;27290;-76
2023/04/08 07:08:41;;;;;;;5.63;5.13;;;10.10;99.70;;;;;;926511;150;27460;-76
2023/04/08 07:11:07;;;;;;;4.67;4.27;;;10.30;99.20;;;;;;926988;150;27375;-76
2023/04/08 07:13:34;;;;;;;4.70;4.30;;;10.50;98.60;;;;;;926503;150;27462;-76
2023/04/08 07:16:00;;;;;;;4.93;4.53;;;10.60;98.40;;;;;;926854;150;27259;-76
2023/04/08 07:18:27;;;;;;;4.67;4.27;;;10.80;98.40;;;;;;926409;149;27398;-76
2023/04/08 07:20:54;;;;;;;5.07;4.60;;;11.00;98.50;;;;;;927523;150;27347;-76
2023/04/08 07:23:20;;;;;;;5.07;4.67;;;11.20;98.90;;;;;;926640;150;27581;-76
2023/04/08 07:25:47;;;;;;;5.93;5.43;;;11.40;99.00;;;;;;926122;150;27411;-76
2023/04/08 07:28:13;;;;;;;4.77;4.40;;;11.60;98.60;;;;;;925052;150;27287;-77
2023/04/08 07:30:40;;;;;;;5.43;5.00;;;11.90;97.70;;;;;;926048;150;27482;-76
2023/04/08 07:33:07;;;;;;;5.63;5.17;;;12.10;96.70;;;;;;926369;150;27436;-76
2023/04/08 07:35:33;;;;;;;5.33;4.93;;;12.30;95.70;;;;;;925323;150;27958;-76
2023/04/08 07:38:00;;;;;;;5.53;4.93;;;12.40;94.70;;;;;;926523;150;27426;-76
2023/04/08 07:40:26;;;;;;;5.80;5.20;;;12.50;93.60;;;;;;926243;150;27327;-76
2023/04/08 07:42:53;;;;;;;5.00;4.60;;;12.60;92.70;;;;;;926022;150;27371;-76
2023/04/08 07:45:20;;;;;;;5.77;5.27;;;12.60;92.20;;;;;;924777;150;27275;-76
2023/04/08 07:47:46;;;;;;;5.23;4.83;;;12.60;91.60;;;;;;926215;150;27443;-75
2023/04/08 07:50:13;;;;;;;5.87;5.33;;;12.60;91.00;;;;;;925036;150;27384;-75
2023/04/08 07:52:39;;;;;;;5.20;4.80;;;12.60;90.80;;;;;;927033;150;27430;-75
2023/04/08 07:55:06;;;;;;;5.97;5.47;;;12.60;90.70;;;;;;925124;150;27347;-76
2023/04/08 07:57:32;;;;;;;5.57;5.07;;;12.70;90.70;;;;;;925920;150;27409;-76
2023/04/08 07:59:59;;;;;;;5.80;5.30;;;12.70;90.70;;;;;;925818;150;27393;-75
2023/04/08 08:02:26;;;;;;;5.27;4.80;;;12.80;90.40;;;;;;925348;150;27399;-76
2023/04/08 08:04:52;;;;;;;5.57;5.10;;;12.80;89.80;;;;;;925527;150;27335;-76
2023/04/08 08:07:19;;;;;;;6.10;5.10;;;12.90;88.80;;;;;;925736;150;27498;-76
2023/04/08 08:09:45;;;;;;;5.87;5.17;;;12.90;88.20;;;;;;925504;150;27388;-75
2023/04/08 08:12:12;;;;;;;5.43;5.03;;;12.90;88.00;;;;;;926112;150;27364;-76
2023/04/08 08:14:39;;;;;;;5.43;4.93;;;12.90;87.60;;;;;;926339;150;27327;-75
2023/04/08 08:17:05;;;;;;;5.50;5.10;;;12.90;87.00;;;;;;923495;150;27354;-75
2023/04/08 08:19:32;;;;;;;6.07;5.57;;;12.90;86.40;;;;;;925816;150;27432;-76
2023/04/08 08:21:58;;;;;;;5.93;5.43;;;12.90;85.90;;;;;;925712;150;27291;-76
2023/04/08 08:24:25;;;;;;;5.73;5.23;;;12.80;85.10;;;;;;937881;149;27927;-76
2023/04/08 08:26:51;;;;;;;6.23;5.40;;;12.80;84.60;;;;;;942475;149;27360;-76
2023/04/08 08:29:18;;;;;;;5.90;5.40;;;12.80;83.70;;;;;;956145;147;27420;-76
2023/04/08 08:31:47;;;;;;;6.80;5.30;;;12.70;83.20;;;;;;945845;151;27267;-75
2023/04/08 08:34:11;;;;;;;5.57;5.13;;;12.60;83.10;;;;;;942032;151;27280;-76
2023/04/08 08:36:38;;;;;;;6.70;5.37;;;12.60;83.40;;;;;;921875;150;27486;-76
2023/04/08 08:39:04;;;;;;;7.93;6.23;;;12.50;84.00;;;;;;942450;148;27352;-76
2023/04/08 08:41:36;;;;;;;6.17;5.67;;;12.50;84.50;;;;;;937278;150;27322;-76
2023/04/08 08:44:06;;;;;;;6.30;5.70;;;12.50;84.60;;;;;;936918;150;27466;-76
2023/04/08 08:46:32;;;;;;;6.37;5.87;;;12.50;84.90;;;;;;935516;150;27475;-76
2023/04/08 08:48:59;;;;;;;6.77;6.17;;;12.60;85.40;;;;;;942621;148;27415;-75
2023/04/08 08:51:26;;;;;;;6.23;5.67;;;12.60;85.40;;;;;;941145;148;27379;-75
2023/04/08 08:53:52;;;;;;;6.17;5.57;;;12.70;85.40;;;;;;941550;148;27355;-76
2023/04/08 08:56:18;;;;;;;6.17;5.67;;;12.70;84.80;;;;;;946389;147;27343;-76
2023/04/08 08:58:46;;;;;;;6.70;6.10;;;12.80;84.30;;;;;;946793;147;27283;-76
2023/04/08 09:01:33;;;;;;;6.83;6.23;;;12.80;83.90;;;;;;948042;147;27324;-76
2023/04/08 09:04:08;;;;;;;6.53;5.93;;;12.80;83.50;;;;;;927779;150;27481;-75
2023/04/08 09:06:35;;;;;;;7.13;6.43;;;12.90;83.50;;;;;;927815;150;27480;-75
2023/04/08 09:09:04;;;;;;;5.90;5.40;;;12.90;83.70;;;;;;941136;149;27599;-75
2023/04/08 09:11:28;;;;;;;7.10;6.43;;;13.00;83.90;;;;;;940896;149;27326;-75
2023/04/08 09:13:54;;;;;;;6.30;5.70;;;13.00;84.00;;;;;;943204;148;27798;-75
2023/04/08 09:16:22;;;;;;;6.57;5.97;;;13.10;83.90;;;;;;943598;148;27418;-75
2023/04/08 09:18:48;;;;;;;6.03;5.53;;;13.20;83.50;;;;;;939870;149;27449;-75
2023/04/08 09:21:15;;;;;;;6.33;5.73;;;13.30;83.00;;;;;;943078;148;27302;-75
2023/04/08 09:23:43;;;;;;;6.80;5.50;;;13.40;82.70;;;;;;943218;148;27404;-75
2023/04/08 09:26:10;;;;;;;5.90;5.37;;;13.50;82.50;;;;;;924678;154;27379;-76
2023/04/08 09:28:36;;;;;;;5.70;5.20;;;13.60;82.50;;;;;;940244;151;27298;-75
2023/04/08 09:31:24;;;;;;;6.23;5.63;;;13.80;82.50;;;;;;925245;151;27439;-76
2023/04/08 09:33:51;;;;;;;6.73;5.63;;;13.90;82.20;;;;;;941611;152;27291;-76
2023/04/08 09:36:17;;;;;;;6.10;5.60;;;14.00;81.60;;;;;;941220;151;27485;-76
2023/04/08 09:38:44;;;;;;;6.23;5.63;;;14.10;80.80;;;;;;923454;151;27369;-75
2023/04/08 09:41:15;;;;;;;5.62;5.03;;;14.20;80.50;;;;;;924633;154;27311;-75
2023/04/08 09:43:47;;;;;;;5.87;5.33;;;14.30;80.60;;;;;;937739;149;27378;-75
2023/04/08 09:46:10;;;;;;;5.67;4.95;;;14.40;79.80;;;;;;931616;152;27719;-76
2023/04/08 09:48:37;;;;;;;5.75;5.25;;;14.50;79.60;;;;;;928849;152;27502;-76
2023/04/08 09:51:02;;;;;;;5.70;5.20;;;14.60;79.10;;;;;;928413;151;27403;-76
2023/04/08 09:53:31;;;;;;;6.00;5.40;;;14.70;78.60;;;;;;929814;151;27340;-76
2023/04/08 09:55:58;;;;;;;5.78;5.17;;;14.80;77.90;;;;;;927808;151;27506;-76
2023/04/08 09:58:28;;;;;;;6.60;5.25;;;14.90;78.00;;;;;;930093;151;27366;-76
2023/04/08 10:00:54;;;;;;;6.00;5.40;;;14.90;76.50;;;;;;928586;151;27342;-76
2023/04/08 10:03:27;;;;;;;5.90;5.40;;;15.00;76.50;;;;;;929005;151;27329;-75
2023/04/08 10:05:55;;;;;;;5.53;5.12;;;15.10;76.40;;;;;;940843;149;27350;-75
2023/04/08 10:08:20;;;;;;;5.83;5.25;;;15.20;76.30;;;;;;926987;152;27454;-75
2023/04/08 10:10:46;;;;;;;7.25;5.17;;;15.20;75.90;;;;;;925325;154;27370;-75
2023/04/08 10:13:13;;;;;;;7.22;6.35;;;15.30;75.40;;;;;;939947;151;27353;-75
2023/04/08 10:15:42;;;;;;;5.67;5.12;;;15.40;75.00;;;;;;925757;151;27300;-75
2023/04/08 10:18:09;;;;;;;5.95;5.42;;;15.50;74.80;;;;;;927867;152;27385;-75
2023/04/08 10:20:35;;;;;;;5.42;4.87;;;15.60;75.10;;;;;;928705;153;27404;-75
2023/04/08 10:23:07;;;;;;;5.80;5.30;;;15.80;75.40;;;;;;940974;152;27424;-75
2023/04/08 10:25:34;;;;;;;5.47;4.97;;;16.00;75.20;;;;;;928980;153;27414;-75
2023/04/08 10:28:02;;;;;;;5.80;5.30;;;16.20;74.60;;;;;;944561;148;27400;-76
2023/04/08 10:30:27;;;;;;;5.53;4.97;;;16.40;74.20;;;;;;953612;147;27359;-75
2023/04/08 10:32:58;;;;;;;5.47;4.97;;;16.60;73.10;;;;;;951587;147;27336;-75
2023/04/08 10:35:29;;;;;;;4.97;4.58;;;16.70;72.40;;;;;;958804;147;27371;-75
2023/04/08 10:37:55;;;;;;;5.15;4.75;;;16.80;72.20;;;;;;933424;150;27390;-75
2023/04/08 10:40:22;;;;;;;5.40;4.90;;;17.00;71.90;;;;;;961508;146;27980;-76
2023/04/08 10:42:48;;;;;;;4.97;4.55;;;17.10;71.10;;;;;;957476;147;27309;-75
2023/04/08 10:45:18;;;;;;;4.87;4.47;;;17.30;70.50;;;;;;951714;147;27449;-75
2023/04/08 10:47:45;;;;;;;4.83;4.33;;;17.40;70.20;;;;;;937469;149;27482;-76
2023/04/08 10:50:14;;;;;;;4.92;4.42;;;17.50;69.90;;;;;;947773;148;27426;-76
2023/04/08 10:52:47;;;;;;;5.22;4.72;;;17.60;69.80;;;;;;947049;148;27326;-76
2023/04/08 10:55:14;;;;;;;4.85;4.35;;;17.80;69.60;;;;;;952316;146;27312;-76
2023/04/08 10:57:40;;;;;;;5.00;4.50;;;17.90;69.00;;;;;;953337;146;27459;-76
2023/04/08 11:00:10;;;;;;;4.35;4.05;;;18.00;68.20;;;;;;949488;148;27316;-76
2023/04/08 11:02:39;;;;;;;4.55;4.15;;;18.10;67.60;;;;;;947884;148;27387;-76
2023/04/08 11:05:06;;;;;;;4.92;4.53;;;18.10;67.30;;;;;;946917;148;27497;-76
2023/04/08 11:07:33;;;;;;;4.87;4.37;;;18.10;67.10;;;;;;958176;146;27346;-76
2023/04/08 11:09:59;;;;;;;4.65;4.25;;;18.10;67.10;;;;;;939784;149;27533;-77
2023/04/08 11:12:26;;;;;;;4.45;4.03;;;18.20;66.80;;;;;;934892;149;27323;-76
2023/04/08 11:14:52;;;;;;;5.17;4.70;;;18.20;66.80;;;;;;937662;149;27382;-76
2023/04/08 11:17:19;;;;;;;5.62;4.80;;;18.30;66.50;;;;;;951878;146;27336;-76
2023/04/08 11:19:45;;;;;;;5.17;4.70;;;18.30;66.50;;;;;;948560;148;27354;-76
2023/04/08 11:22:12;;;;;;;5.00;4.35;;;18.40;65.60;;;;;;946223;148;27327;-77
2023/04/08 11:24:38;;;;;;;5.87;4.62;;;18.50;65.40;;;;;;951836;147;27339;-76
2023/04/08 11:27:08;;;;;;;4.30;3.87;;;18.50;65.30;;;;;;931874;149;27346;-76
2023/04/08 11:29:34;;;;;;;4.53;4.12;;;18.60;65.10;;;;;;926203;150;27398;-76
2023/04/08 11:32:01;;;;;;;4.37;3.98;;;18.60;65.10;;;;;;926030;150;27447;-76
2023/04/08 11:34:27;;;;;;;4.00;3.67;;;18.70;65.00;;;;;;926650;150;27366;-76
2023/04/08 11:36:55;;;;;;;4.30;3.98;;;18.70;64.80;;;;;;926637;150;27420;-76
2023/04/08 11:39:23;;;;;;;3.75;3.45;;;18.80;64.60;;;;;;937148;146;27424;-76
2023/04/08 11:41:50;;;;;;;4.90;3.75;;;18.80;64.40;;;;;;950575;146;27304;-76
2023/04/08 11:44:16;;;;;;;3.98;3.67;;;18.80;63.90;;;;;;952544;146;27300;-75
2023/04/08 11:46:43;;;;;;;4.45;4.05;;;18.80;63.20;;;;;;949430;146;27290;-75
2023/04/08 11:49:10;;;;;;;4.17;3.87;;;18.70;62.40;;;;;;938013;150;27395;-75
2023/04/08 11:51:36;;;;;;;4.58;4.17;;;18.60;62.00;;;;;;939791;150;27365;-75
2023/04/08 11:54:06;;;;;;;4.92;4.25;;;18.50;62.30;;;;;;935495;150;27410;-75
2023/04/08 11:56:33;;;;;;;4.17;3.87;;;18.30;61.70;;;;;;938273;150;27294;-75
2023/04/08 11:58:59;;;;;;;4.90;3.98;;;18.20;62.00;;;;;;936912;150;27439;-75
2023/04/08 12:01:25;;;;;;;4.20;3.55;;;18.00;62.00;;;;;;939919;150;27478;-76
2023/04/08 12:03:55;;;;;;;4.05;3.75;;;17.90;62.20;;;;;;939532;150;27395;-76
2023/04/08 12:06:22;;;;;;;4.20;3.90;;;17.80;62.40;;;;;;937464;150;27428;-76
2023/04/08 12:08:48;;;;;;;3.77;3.47;;;17.60;62.50;;;;;;939396;150;27465;-76
2023/04/08 12:11:15;;;;;;;4.33;3.92;;;17.50;62.40;;;;;;939510;150;27450;-76
2023/04/08 12:13:41;;;;;;;3.80;3.40;;;17.40;62.30;;;;;;943702;148;27345;-76
2023/04/08 12:16:08;;;;;;;4.65;4.12;;;17.30;62.40;;;;;;943326;148;27258;-76
2023/04/08 12:18:36;;;;;;;4.12;3.62;;;17.20;62.70;;;;;;938758;150;27367;-76
2023/04/08 12:21:01;;;;;;;4.20;3.80;;;17.00;63.00;;;;;;943131;148;27309;-76
2023/04/08 12:23:28;;;;;;;4.78;4.08;;;17.00;63.30;;;;;;943385;148;27446;-76
2023/04/08 12:25:54;;;;;;;4.40;4.00;;;17.00;63.60;;;;;;932684;150;27353;-76
2023/04/08 12:28:21;;;;;;;5.25;3.83;;;17.00;64.10;;;;;;940875;149;27432;-76
2023/04/08 12:30:47;;;;;;;4.53;4.12;;;17.00;64.60;;;;;;932300;149;27390;-75
2023/04/08 12:33:14;;;;;;;5.10;4.60;;;17.10;65.00;;;;;;937144;150;27451;-75
2023/04/08 12:35:41;;;;;;;4.37;3.98;;;17.20;65.00;;;;;;937584;150;27270;-75
2023/04/08 12:38:07;;;;;;;4.30;4.00;;;17.30;65.10;;;;;;935093;150;27332;-75
2023/04/08 12:40:34;;;;;;;5.05;4.15;;;17.50;65.70;;;;;;943605;148;27414;-75
2023/04/08 12:43:01;;;;;;;5.95;4.55;;;17.60;65.10;;;;;;943188;148;27373;-76
2023/04/08 12:45:27;;;;;;;4.97;4.47;;;17.80;65.20;;;;;;945297;149;27324;-76
2023/04/08 12:47:54;;;;;;;6.10;4.62;;;17.90;65.00;;;;;;939382;149;27339;-76